sensor_id;sensor_type;location;lat;lon;timestamp;temperature;humidity
76613;DHT22;65507;48.454;-2.058;2023-06-22T00:02:25;18.30;64.80
76613;DHT22;65507;48.454;-2.058;2023-06-22T00:04:50;18.30;64.90
76613;DHT22;65507;48.454;-2.058;2023-06-22T00:07:16;18.30;64.70
76613;DHT22;65507;48.454;-2.058;2023-06-22T00:09:41;18.40;65.00
76613;DHT22;65507;48.454;-2.058;2023-06-22T00:12:10;18.40;66.10
76613;DHT22;65507;48.454;-2.058;2023-06-22T00:14:35;18.30;65.00
76613;DHT22;65507;48.454;-2.058;2023-06-22T00:17:01;18.30;65.10
76613;DHT22;65507;48.454;-2.058;2023-06-22T00:19:26;18.30;65.30
76613;DHT22;65507;48.454;-2.058;2023-06-22T00:21:52;18.20;65.50
76613;DHT22;65507;48.454;-2.058;2023-06-22T00:24:21;18.10;65.50
76613;DHT22;65507;48.454;-2.058;2023-06-22T00:26:49;18.10;65.60
76613;DHT22;65507;48.454;-2.058;2023-06-22T00:29:15;18.10;65.40
76613;DHT22;65507;48.454;-2.058;2023-06-22T00:31:40;18.10;65.50
76613;DHT22;65507;48.454;-2.058;2023-06-22T00:34:06;18.10;65.80
76613;DHT22;65507;48.454;-2.058;2023-06-22T00:36:34;18.00;66.30
76613;DHT22;65507;48.454;-2.058;2023-06-22T00:38:59;18.00;66.00
76613;DHT22;65507;48.454;-2.058;2023-06-22T00:41:25;17.90;66.10
76613;DHT22;65507;48.454;-2.058;2023-06-22T00:43:54;17.90;66.10
76613;DHT22;65507;48.454;-2.058;2023-06-22T00:46:19;17.90;65.80
76613;DHT22;65507;48.454;-2.058;2023-06-22T00:48:45;18.00;66.00
76613;DHT22;65507;48.454;-2.058;2023-06-22T00:51:11;18.00;65.80
76613;DHT22;65507;48.454;-2.058;2023-06-22T00:53:36;18.00;65.80
76613;DHT22;65507;48.454;-2.058;2023-06-22T00:56:03;18.10;65.60
76613;DHT22;65507;48.454;-2.058;2023-06-22T00:58:29;18.10;65.30
76613;DHT22;65507;48.454;-2.058;2023-06-22T01:00:55;18.10;65.60
76613;DHT22;65507;48.454;-2.058;2023-06-22T01:03:20;18.20;65.50
76613;DHT22;65507;48.454;-2.058;2023-06-22T01:05:46;18.20;65.80
76613;DHT22;65507;48.454;-2.058;2023-06-22T01:10:43;18.30;65.10
76613;DHT22;65507;48.454;-2.058;2023-06-22T01:16:03;18.30;65.10
76613;DHT22;65507;48.454;-2.058;2023-06-22T01:18:32;18.30;65.30
76613;DHT22;65507;48.454;-2.058;2023-06-22T01:21:01;18.30;65.20
76613;DHT22;65507;48.454;-2.058;2023-06-22T01:23:42;18.20;65.20
76613;DHT22;65507;48.454;-2.058;2023-06-22T01:26:59;18.20;65.30
76613;DHT22;65507;48.454;-2.058;2023-06-22T01:28:57;18.20;65.80
76613;DHT22;65507;48.454;-2.058;2023-06-22T01:31:25;18.10;65.90
76613;DHT22;65507;48.454;-2.058;2023-06-22T01:33:53;18.00;66.00
76613;DHT22;65507;48.454;-2.058;2023-06-22T01:36:19;18.00;67.10
76613;DHT22;65507;48.454;-2.058;2023-06-22T01:38:45;18.00;66.30
76613;DHT22;65507;48.454;-2.058;2023-06-22T01:41:11;17.90;66.30
76613;DHT22;65507;48.454;-2.058;2023-06-22T01:43:38;17.90;66.50
76613;DHT22;65507;48.454;-2.058;2023-06-22T01:46:04;17.90;66.50
76613;DHT22;65507;48.454;-2.058;2023-06-22T01:48:29;17.90;66.40
76613;DHT22;65507;48.454;-2.058;2023-06-22T01:50:55;17.90;66.20
76613;DHT22;65507;48.454;-2.058;2023-06-22T01:53:24;18.00;66.20
76613;DHT22;65507;48.454;-2.058;2023-06-22T01:55:50;18.00;65.80
76613;DHT22;65507;48.454;-2.058;2023-06-22T01:58:15;18.00;66.20
76613;DHT22;65507;48.454;-2.058;2023-06-22T02:00:44;18.00;66.00
76613;DHT22;65507;48.454;-2.058;2023-06-22T02:03:14;18.00;67.10
76613;DHT22;65507;48.454;-2.058;2023-06-22T02:05:43;18.00;65.90
76613;DHT22;65507;48.454;-2.058;2023-06-22T02:08:11;18.10;65.90
76613;DHT22;65507;48.454;-2.058;2023-06-22T02:10:41;18.10;65.90
76613;DHT22;65507;48.454;-2.058;2023-06-22T02:13:08;18.20;65.70
76613;DHT22;65507;48.454;-2.058;2023-06-22T02:15:35;18.00;66.00
76613;DHT22;65507;48.454;-2.058;2023-06-22T02:18:00;18.00;66.40
76613;DHT22;65507;48.454;-2.058;2023-06-22T02:20:26;18.00;66.30
76613;DHT22;65507;48.454;-2.058;2023-06-22T02:22:51;18.00;66.40
76613;DHT22;65507;48.454;-2.058;2023-06-22T02:25:17;18.00;66.20
76613;DHT22;65507;48.454;-2.058;2023-06-22T02:27:42;17.90;66.50
76613;DHT22;65507;48.454;-2.058;2023-06-22T02:30:08;17.90;66.50
76613;DHT22;65507;48.454;-2.058;2023-06-22T02:32:34;17.90;67.20
76613;DHT22;65507;48.454;-2.058;2023-06-22T02:35:00;17.80;66.90
76613;DHT22;65507;48.454;-2.058;2023-06-22T02:37:29;17.80;67.10
76613;DHT22;65507;48.454;-2.058;2023-06-22T02:39:55;17.70;67.20
76613;DHT22;65507;48.454;-2.058;2023-06-22T02:42:20;17.70;67.00
76613;DHT22;65507;48.454;-2.058;2023-06-22T02:44:47;17.60;67.40
76613;DHT22;65507;48.454;-2.058;2023-06-22T02:47:12;17.50;67.80
76613;DHT22;65507;48.454;-2.058;2023-06-22T02:49:38;17.40;67.80
76613;DHT22;65507;48.454;-2.058;2023-06-22T02:52:03;17.40;68.00
76613;DHT22;65507;48.454;-2.058;2023-06-22T02:54:29;17.30;68.00
76613;DHT22;65507;48.454;-2.058;2023-06-22T02:56:54;17.40;67.80
76613;DHT22;65507;48.454;-2.058;2023-06-22T02:59:20;17.30;68.10
76613;DHT22;65507;48.454;-2.058;2023-06-22T03:01:49;17.30;67.70
76613;DHT22;65507;48.454;-2.058;2023-06-22T03:04:15;17.40;67.60
76613;DHT22;65507;48.454;-2.058;2023-06-22T03:06:41;17.30;67.60
76613;DHT22;65507;48.454;-2.058;2023-06-22T03:09:07;17.40;67.40
76613;DHT22;65507;48.454;-2.058;2023-06-22T03:11:33;17.40;67.30
76613;DHT22;65507;48.454;-2.058;2023-06-22T03:13:59;17.50;67.20
76613;DHT22;65507;48.454;-2.058;2023-06-22T03:16:24;17.60;67.20
76613;DHT22;65507;48.454;-2.058;2023-06-22T03:18:50;17.60;67.20
76613;DHT22;65507;48.454;-2.058;2023-06-22T03:21:16;17.60;67.50
76613;DHT22;65507;48.454;-2.058;2023-06-22T03:23:42;17.60;67.20
76613;DHT22;65507;48.454;-2.058;2023-06-22T03:26:11;17.60;68.50
76613;DHT22;65507;48.454;-2.058;2023-06-22T03:28:37;17.50;67.40
76613;DHT22;65507;48.454;-2.058;2023-06-22T03:31:03;17.60;67.70
76613;DHT22;65507;48.454;-2.058;2023-06-22T03:33:29;17.50;67.70
76613;DHT22;65507;48.454;-2.058;2023-06-22T03:35:55;19.00;68.40
76613;DHT22;65507;48.454;-2.058;2023-06-22T03:38:20;17.60;67.80
76613;DHT22;65507;48.454;-2.058;2023-06-22T03:40:46;17.60;67.50
76613;DHT22;65507;48.454;-2.058;2023-06-22T03:43:11;17.60;67.70
76613;DHT22;65507;48.454;-2.058;2023-06-22T03:45:37;17.60;67.60
76613;DHT22;65507;48.454;-2.058;2023-06-22T03:48:03;17.60;67.50
76613;DHT22;65507;48.454;-2.058;2023-06-22T03:50:28;17.60;67.60
76613;DHT22;65507;48.454;-2.058;2023-06-22T03:52:55;17.60;67.80
76613;DHT22;65507;48.454;-2.058;2023-06-22T03:55:20;17.50;67.80
76613;DHT22;65507;48.454;-2.058;2023-06-22T03:57:46;17.50;67.70
76613;DHT22;65507;48.454;-2.058;2023-06-22T04:00:12;17.50;68.00
76613;DHT22;65507;48.454;-2.058;2023-06-22T04:02:38;17.40;68.00
76613;DHT22;65507;48.454;-2.058;2023-06-22T04:05:03;17.30;68.10
76613;DHT22;65507;48.454;-2.058;2023-06-22T04:07:29;17.40;68.40
76613;DHT22;65507;48.454;-2.058;2023-06-22T04:09:55;17.30;68.30
76613;DHT22;65507;48.454;-2.058;2023-06-22T04:12:20;17.20;68.60
76613;DHT22;65507;48.454;-2.058;2023-06-22T04:14:46;17.20;68.60
76613;DHT22;65507;48.454;-2.058;2023-06-22T04:17:11;17.40;68.00
76613;DHT22;65507;48.454;-2.058;2023-06-22T04:19:39;17.40;68.00
76613;DHT22;65507;48.454;-2.058;2023-06-22T04:22:05;17.50;68.00
76613;DHT22;65507;48.454;-2.058;2023-06-22T04:24:32;17.50;67.90
76613;DHT22;65507;48.454;-2.058;2023-06-22T04:26:58;17.40;68.30
76613;DHT22;65507;48.454;-2.058;2023-06-22T04:29:28;17.30;68.20
76613;DHT22;65507;48.454;-2.058;2023-06-22T04:31:58;17.30;68.30
76613;DHT22;65507;48.454;-2.058;2023-06-22T04:34:24;17.30;68.20
76613;DHT22;65507;48.454;-2.058;2023-06-22T04:36:51;17.30;68.50
76613;DHT22;65507;48.454;-2.058;2023-06-22T04:39:17;17.30;68.40
76613;DHT22;65507;48.454;-2.058;2023-06-22T04:41:44;17.40;68.70
76613;DHT22;65507;48.454;-2.058;2023-06-22T04:44:10;17.30;68.50
76613;DHT22;65507;48.454;-2.058;2023-06-22T04:46:36;17.30;68.70
76613;DHT22;65507;48.454;-2.058;2023-06-22T04:49:09;17.40;68.60
76613;DHT22;65507;48.454;-2.058;2023-06-22T04:51:36;17.40;68.40
76613;DHT22;65507;48.454;-2.058;2023-06-22T04:54:03;17.40;68.50
76613;DHT22;65507;48.454;-2.058;2023-06-22T04:56:31;17.40;69.00
76613;DHT22;65507;48.454;-2.058;2023-06-22T04:58:56;17.40;69.00
76613;DHT22;65507;48.454;-2.058;2023-06-22T05:01:22;17.40;68.80
76613;DHT22;65507;48.454;-2.058;2023-06-22T05:03:48;17.40;68.60
76613;DHT22;65507;48.454;-2.058;2023-06-22T05:06:13;17.50;68.70
76613;DHT22;65507;48.454;-2.058;2023-06-22T05:08:40;17.60;68.30
76613;DHT22;65507;48.454;-2.058;2023-06-22T05:11:05;17.70;68.10
76613;DHT22;65507;48.454;-2.058;2023-06-22T05:13:31;17.70;68.20
76613;DHT22;65507;48.454;-2.058;2023-06-22T05:15:56;17.70;68.50
76613;DHT22;65507;48.454;-2.058;2023-06-22T05:18:27;17.70;68.50
76613;DHT22;65507;48.454;-2.058;2023-06-22T05:20:54;17.80;68.40
76613;DHT22;65507;48.454;-2.058;2023-06-22T05:23:20;17.80;68.30
76613;DHT22;65507;48.454;-2.058;2023-06-22T05:25:45;17.90;68.20
76613;DHT22;65507;48.454;-2.058;2023-06-22T05:28:11;18.10;67.80
76613;DHT22;65507;48.454;-2.058;2023-06-22T05:30:37;17.70;67.20
76613;DHT22;65507;48.454;-2.058;2023-06-22T05:33:03;18.30;67.30
76613;DHT22;65507;48.454;-2.058;2023-06-22T05:35:28;18.40;67.20
76613;DHT22;65507;48.454;-2.058;2023-06-22T05:37:54;18.60;66.90
76613;DHT22;65507;48.454;-2.058;2023-06-22T05:40:20;18.70;67.00
76613;DHT22;65507;48.454;-2.058;2023-06-22T05:42:46;18.90;66.60
76613;DHT22;65507;48.454;-2.058;2023-06-22T05:45:12;18.90;66.40
76613;DHT22;65507;48.454;-2.058;2023-06-22T05:47:37;19.10;66.20
76613;DHT22;65507;48.454;-2.058;2023-06-22T05:50:03;19.20;66.60
76613;DHT22;65507;48.454;-2.058;2023-06-22T05:52:32;19.20;66.30
76613;DHT22;65507;48.454;-2.058;2023-06-22T05:54:58;19.30;66.30
76613;DHT22;65507;48.454;-2.058;2023-06-22T05:57:23;19.30;66.40
76613;DHT22;65507;48.454;-2.058;2023-06-22T05:59:49;19.40;66.40
76613;DHT22;65507;48.454;-2.058;2023-06-22T06:02:14;19.50;66.30
76613;DHT22;65507;48.454;-2.058;2023-06-22T06:04:40;19.50;67.50
76613;DHT22;65507;48.454;-2.058;2023-06-22T06:07:06;19.50;67.40
76613;DHT22;65507;48.454;-2.058;2023-06-22T06:09:31;19.60;66.50
76613;DHT22;65507;48.454;-2.058;2023-06-22T06:11:57;19.70;66.50
76613;DHT22;65507;48.454;-2.058;2023-06-22T06:14:22;19.80;66.20
76613;DHT22;65507;48.454;-2.058;2023-06-22T06:16:48;19.80;66.00
76613;DHT22;65507;48.454;-2.058;2023-06-22T06:19:14;19.80;66.20
76613;DHT22;65507;48.454;-2.058;2023-06-22T06:21:40;19.80;66.40
76613;DHT22;65507;48.454;-2.058;2023-06-22T06:24:05;19.80;66.60
76613;DHT22;65507;48.454;-2.058;2023-06-22T06:26:31;19.70;67.20
76613;DHT22;65507;48.454;-2.058;2023-06-22T06:28:59;19.70;67.30
76613;DHT22;65507;48.454;-2.058;2023-06-22T06:31:25;19.70;67.20
76613;DHT22;65507;48.454;-2.058;2023-06-22T06:33:52;19.70;67.10
76613;DHT22;65507;48.454;-2.058;2023-06-22T06:36:19;19.80;67.10
76613;DHT22;65507;48.454;-2.058;2023-06-22T06:38:45;19.70;67.60
76613;DHT22;65507;48.454;-2.058;2023-06-22T06:41:13;19.70;67.50
76613;DHT22;65507;48.454;-2.058;2023-06-22T06:43:38;19.70;67.10
76613;DHT22;65507;48.454;-2.058;2023-06-22T06:46:04;19.70;67.30
76613;DHT22;65507;48.454;-2.058;2023-06-22T06:48:29;19.80;67.30
76613;DHT22;65507;48.454;-2.058;2023-06-22T06:50:55;20.00;66.90
76613;DHT22;65507;48.454;-2.058;2023-06-22T06:53:21;20.00;66.80
76613;DHT22;65507;48.454;-2.058;2023-06-22T06:55:46;20.00;66.60
76613;DHT22;65507;48.454;-2.058;2023-06-22T06:58:12;20.10;66.50
76613;DHT22;65507;48.454;-2.058;2023-06-22T07:00:38;20.30;67.30
76613;DHT22;65507;48.454;-2.058;2023-06-22T07:03:04;20.30;66.20
76613;DHT22;65507;48.454;-2.058;2023-06-22T07:05:39;20.40;66.20
76613;DHT22;65507;48.454;-2.058;2023-06-22T07:08:05;20.50;66.10
76613;DHT22;65507;48.454;-2.058;2023-06-22T07:10:30;20.60;66.10
76613;DHT22;65507;48.454;-2.058;2023-06-22T07:12:56;20.70;66.20
76613;DHT22;65507;48.454;-2.058;2023-06-22T07:15:22;20.80;65.70
76613;DHT22;65507;48.454;-2.058;2023-06-22T07:17:48;20.70;65.80
76613;DHT22;65507;48.454;-2.058;2023-06-22T07:20:13;20.70;66.10
76613;DHT22;65507;48.454;-2.058;2023-06-22T07:22:39;20.70;66.20
76613;DHT22;65507;48.454;-2.058;2023-06-22T07:25:05;20.70;66.00
76613;DHT22;65507;48.454;-2.058;2023-06-22T07:27:38;20.70;66.10
76613;DHT22;65507;48.454;-2.058;2023-06-22T07:30:08;20.70;66.10
76613;DHT22;65507;48.454;-2.058;2023-06-22T07:32:34;20.70;66.20
76613;DHT22;65507;48.454;-2.058;2023-06-22T07:34:59;20.70;66.40
76613;DHT22;65507;48.454;-2.058;2023-06-22T07:37:25;20.80;66.40
76613;DHT22;65507;48.454;-2.058;2023-06-22T07:39:53;20.90;66.00
76613;DHT22;65507;48.454;-2.058;2023-06-22T07:42:19;21.00;66.00
76613;DHT22;65507;48.454;-2.058;2023-06-22T07:44:44;21.10;65.90
76613;DHT22;65507;48.454;-2.058;2023-06-22T07:47:10;21.10;65.90
76613;DHT22;65507;48.454;-2.058;2023-06-22T07:49:35;21.20;65.70
76613;DHT22;65507;48.454;-2.058;2023-06-22T07:52:01;21.30;65.60
76613;DHT22;65507;48.454;-2.058;2023-06-22T07:54:27;21.40;65.30
76613;DHT22;65507;48.454;-2.058;2023-06-22T07:56:52;21.50;65.40
76613;DHT22;65507;48.454;-2.058;2023-06-22T07:59:18;21.60;65.10
76613;DHT22;65507;48.454;-2.058;2023-06-22T08:01:44;21.50;65.30
76613;DHT22;65507;48.454;-2.058;2023-06-22T08:04:09;21.30;65.80
76613;DHT22;65507;48.454;-2.058;2023-06-22T08:06:35;21.30;66.00
76613;DHT22;65507;48.454;-2.058;2023-06-22T08:09:00;21.30;65.90
76613;DHT22;65507;48.454;-2.058;2023-06-22T08:11:26;21.30;66.00
76613;DHT22;65507;48.454;-2.058;2023-06-22T08:13:52;21.20;66.10
76613;DHT22;65507;48.454;-2.058;2023-06-22T08:16:17;21.20;66.10
76613;DHT22;65507;48.454;-2.058;2023-06-22T08:18:43;21.10;66.30
76613;DHT22;65507;48.454;-2.058;2023-06-22T08:21:08;21.10;66.60
76613;DHT22;65507;48.454;-2.058;2023-06-22T08:23:34;21.00;66.70
76613;DHT22;65507;48.454;-2.058;2023-06-22T08:26:00;21.00;66.50
76613;DHT22;65507;48.454;-2.058;2023-06-22T08:28:26;21.10;66.50
76613;DHT22;65507;48.454;-2.058;2023-06-22T08:30:51;21.10;66.40
76613;DHT22;65507;48.454;-2.058;2023-06-22T08:33:17;21.00;66.80
76613;DHT22;65507;48.454;-2.058;2023-06-22T08:35:43;20.90;67.00
76613;DHT22;65507;48.454;-2.058;2023-06-22T08:38:09;20.90;66.70
76613;DHT22;65507;48.454;-2.058;2023-06-22T08:40:34;21.00;66.50
76613;DHT22;65507;48.454;-2.058;2023-06-22T08:43:00;21.20;66.10
76613;DHT22;65507;48.454;-2.058;2023-06-22T08:45:25;21.40;65.60
76613;DHT22;65507;48.454;-2.058;2023-06-22T08:47:51;21.60;65.30
76613;DHT22;65507;48.454;-2.058;2023-06-22T08:50:16;21.60;65.20
76613;DHT22;65507;48.454;-2.058;2023-06-22T08:52:42;21.70;65.20
76613;DHT22;65507;48.454;-2.058;2023-06-22T08:55:08;21.70;65.20
76613;DHT22;65507;48.454;-2.058;2023-06-22T08:57:34;21.70;65.20
76613;DHT22;65507;48.454;-2.058;2023-06-22T09:00:02;21.60;65.20
76613;DHT22;65507;48.454;-2.058;2023-06-22T09:02:30;21.50;65.50
76613;DHT22;65507;48.454;-2.058;2023-06-22T09:04:57;21.60;65.30
76613;DHT22;65507;48.454;-2.058;2023-06-22T09:07:23;21.80;65.10
76613;DHT22;65507;48.454;-2.058;2023-06-22T09:09:50;22.00;64.70
76613;DHT22;65507;48.454;-2.058;2023-06-22T09:12:16;22.10;64.50
76613;DHT22;65507;48.454;-2.058;2023-06-22T09:14:41;22.20;64.50
76613;DHT22;65507;48.454;-2.058;2023-06-22T09:17:07;22.30;64.30
76613;DHT22;65507;48.454;-2.058;2023-06-22T09:19:32;22.40;64.20
76613;DHT22;65507;48.454;-2.058;2023-06-22T09:21:58;22.40;64.70
76613;DHT22;65507;48.454;-2.058;2023-06-22T09:24:24;22.40;64.70
76613;DHT22;65507;48.454;-2.058;2023-06-22T09:26:50;22.50;64.40
76613;DHT22;65507;48.454;-2.058;2023-06-22T09:29:16;22.40;64.80
76613;DHT22;65507;48.454;-2.058;2023-06-22T09:31:41;22.20;64.80
76613;DHT22;65507;48.454;-2.058;2023-06-22T09:34:07;21.40;65.70
76613;DHT22;65507;48.454;-2.058;2023-06-22T09:36:33;22.00;66.80
76613;DHT22;65507;48.454;-2.058;2023-06-22T09:38:58;21.80;66.70
76613;DHT22;65507;48.454;-2.058;2023-06-22T09:41:24;21.80;66.00
76613;DHT22;65507;48.454;-2.058;2023-06-22T09:43:50;21.90;65.80
76613;DHT22;65507;48.454;-2.058;2023-06-22T09:46:16;22.00;65.40
76613;DHT22;65507;48.454;-2.058;2023-06-22T09:48:42;22.00;65.10
76613;DHT22;65507;48.454;-2.058;2023-06-22T09:51:07;22.00;65.10
76613;DHT22;65507;48.454;-2.058;2023-06-22T09:53:33;21.90;65.20
76613;DHT22;65507;48.454;-2.058;2023-06-22T09:56:00;22.00;65.10
76613;DHT22;65507;48.454;-2.058;2023-06-22T09:58:27;22.20;64.80
76613;DHT22;65507;48.454;-2.058;2023-06-22T10:00:52;22.20;64.70
76613;DHT22;65507;48.454;-2.058;2023-06-22T10:03:19;22.20;64.60
76613;DHT22;65507;48.454;-2.058;2023-06-22T10:05:45;22.20;64.50
76613;DHT22;65507;48.454;-2.058;2023-06-22T10:08:10;22.30;64.50
76613;DHT22;65507;48.454;-2.058;2023-06-22T10:10:36;22.40;64.20
76613;DHT22;65507;48.454;-2.058;2023-06-22T10:13:09;22.50;64.10
76613;DHT22;65507;48.454;-2.058;2023-06-22T10:15:37;22.60;63.90
76613;DHT22;65507;48.454;-2.058;2023-06-22T10:18:03;22.60;63.90
76613;DHT22;65507;48.454;-2.058;2023-06-22T10:20:29;22.50;64.10
76613;DHT22;65507;48.454;-2.058;2023-06-22T10:22:54;22.50;64.10
76613;DHT22;65507;48.454;-2.058;2023-06-22T10:25:21;22.60;64.00
76613;DHT22;65507;48.454;-2.058;2023-06-22T10:27:46;22.70;63.70
76613;DHT22;65507;48.454;-2.058;2023-06-22T10:30:12;22.80;63.60
76613;DHT22;65507;48.454;-2.058;2023-06-22T10:32:38;22.80;63.50
76613;DHT22;65507;48.454;-2.058;2023-06-22T10:35:05;22.90;63.50
76613;DHT22;65507;48.454;-2.058;2023-06-22T10:37:31;23.00;63.10
76613;DHT22;65507;48.454;-2.058;2023-06-22T10:39:56;23.00;63.50
76613;DHT22;65507;48.454;-2.058;2023-06-22T10:42:22;23.00;63.60
76613;DHT22;65507;48.454;-2.058;2023-06-22T10:44:48;23.00;64.10
76613;DHT22;65507;48.454;-2.058;2023-06-22T10:47:13;23.10;65.70
76613;DHT22;65507;48.454;-2.058;2023-06-22T10:49:39;23.20;64.80
76613;DHT22;65507;48.454;-2.058;2023-06-22T10:52:07;23.60;65.90
76613;DHT22;65507;48.454;-2.058;2023-06-22T10:54:34;23.40;62.50
76613;DHT22;65507;48.454;-2.058;2023-06-22T10:57:00;23.60;62.30
76613;DHT22;65507;48.454;-2.058;2023-06-22T10:59:26;23.60;62.30
76613;DHT22;65507;48.454;-2.058;2023-06-22T11:01:52;23.60;62.30
76613;DHT22;65507;48.454;-2.058;2023-06-22T11:04:18;23.70;62.30
76613;DHT22;65507;48.454;-2.058;2023-06-22T11:06:43;23.80;62.10
76613;DHT22;65507;48.454;-2.058;2023-06-22T11:09:09;23.60;62.30
76613;DHT22;65507;48.454;-2.058;2023-06-22T11:11:34;23.50;62.70
76613;DHT22;65507;48.454;-2.058;2023-06-22T11:14:00;23.50;62.70
76613;DHT22;65507;48.454;-2.058;2023-06-22T11:16:26;23.50;62.50
76613;DHT22;65507;48.454;-2.058;2023-06-22T11:18:51;23.50;62.80
76613;DHT22;65507;48.454;-2.058;2023-06-22T11:21:17;23.50;62.80
76613;DHT22;65507;48.454;-2.058;2023-06-22T11:23:42;23.60;63.30
76613;DHT22;65507;48.454;-2.058;2023-06-22T11:26:08;22.20;61.30
76613;DHT22;65507;48.454;-2.058;2023-06-22T11:28:33;23.80;61.90
76613;DHT22;65507;48.454;-2.058;2023-06-22T11:30:59;23.80;61.90
76613;DHT22;65507;48.454;-2.058;2023-06-22T11:33:24;23.80;61.80
76613;DHT22;65507;48.454;-2.058;2023-06-22T11:35:50;23.70;62.10
76613;DHT22;65507;48.454;-2.058;2023-06-22T11:38:15;23.80;62.10
76613;DHT22;65507;48.454;-2.058;2023-06-22T11:40:42;23.80;61.70
76613;DHT22;65507;48.454;-2.058;2023-06-22T11:43:07;23.90;61.60
76613;DHT22;65507;48.454;-2.058;2023-06-22T11:45:33;24.00;61.40
76613;DHT22;65507;48.454;-2.058;2023-06-22T11:47:58;24.10;62.10
76613;DHT22;65507;48.454;-2.058;2023-06-22T11:50:24;24.40;61.40
76613;DHT22;65507;48.454;-2.058;2023-06-22T11:52:49;24.50;60.70
76613;DHT22;65507;48.454;-2.058;2023-06-22T11:55:16;24.70;60.30
76613;DHT22;65507;48.454;-2.058;2023-06-22T11:57:54;24.80;60.20
76613;DHT22;65507;48.454;-2.058;2023-06-22T12:00:20;24.80;60.20
76613;DHT22;65507;48.454;-2.058;2023-06-22T12:02:49;24.70;60.30
76613;DHT22;65507;48.454;-2.058;2023-06-22T12:05:14;24.70;60.50
76613;DHT22;65507;48.454;-2.058;2023-06-22T12:07:40;24.60;60.60
76613;DHT22;65507;48.454;-2.058;2023-06-22T12:10:06;24.60;60.60
76613;DHT22;65507;48.454;-2.058;2023-06-22T12:12:32;24.60;60.50
76613;DHT22;65507;48.454;-2.058;2023-06-22T12:14:57;24.50;60.50
76613;DHT22;65507;48.454;-2.058;2023-06-22T12:17:23;24.50;60.60
76613;DHT22;65507;48.454;-2.058;2023-06-22T12:19:48;24.40;61.50
76613;DHT22;65507;48.454;-2.058;2023-06-22T12:22:15;24.40;60.60
76613;DHT22;65507;48.454;-2.058;2023-06-22T12:24:40;24.40;60.20
76613;DHT22;65507;48.454;-2.058;2023-06-22T12:27:06;24.30;59.90
76613;DHT22;65507;48.454;-2.058;2023-06-22T12:29:31;24.30;59.80
76613;DHT22;65507;48.454;-2.058;2023-06-22T12:31:57;24.50;59.70
76613;DHT22;65507;48.454;-2.058;2023-06-22T12:34:22;24.60;59.40
76613;DHT22;65507;48.454;-2.058;2023-06-22T12:36:48;24.80;59.10
76613;DHT22;65507;48.454;-2.058;2023-06-22T12:39:15;24.80;58.80
76613;DHT22;65507;48.454;-2.058;2023-06-22T12:41:40;24.90;58.70
76613;DHT22;65507;48.454;-2.058;2023-06-22T12:44:06;25.00;58.70
76613;DHT22;65507;48.454;-2.058;2023-06-22T12:46:31;24.80;58.50
76613;DHT22;65507;48.454;-2.058;2023-06-22T12:49:03;24.60;58.90
76613;DHT22;65507;48.454;-2.058;2023-06-22T12:51:29;24.40;59.20
76613;DHT22;65507;48.454;-2.058;2023-06-22T12:53:55;24.30;59.20
76613;DHT22;65507;48.454;-2.058;2023-06-22T12:56:21;24.30;59.20
76613;DHT22;65507;48.454;-2.058;2023-06-22T12:58:46;24.40;58.90
76613;DHT22;65507;48.454;-2.058;2023-06-22T13:01:12;24.50;58.50
76613;DHT22;65507;48.454;-2.058;2023-06-22T13:03:38;24.60;58.40
76613;DHT22;65507;48.454;-2.058;2023-06-22T13:06:03;24.70;58.10
76613;DHT22;65507;48.454;-2.058;2023-06-22T13:08:29;24.80;57.90
76613;DHT22;65507;48.454;-2.058;2023-06-22T13:10:55;24.70;57.80
76613;DHT22;65507;48.454;-2.058;2023-06-22T13:13:23;24.70;58.00
76613;DHT22;65507;48.454;-2.058;2023-06-22T13:15:50;24.80;58.00
76613;DHT22;65507;48.454;-2.058;2023-06-22T13:18:15;24.90;57.90
76613;DHT22;65507;48.454;-2.058;2023-06-22T13:20:41;24.90;57.80
76613;DHT22;65507;48.454;-2.058;2023-06-22T13:23:07;25.10;57.40
76613;DHT22;65507;48.454;-2.058;2023-06-22T13:25:32;25.30;57.20
76613;DHT22;65507;48.454;-2.058;2023-06-22T13:27:58;25.40;57.20
76613;DHT22;65507;48.454;-2.058;2023-06-22T13:30:23;25.30;57.10
76613;DHT22;65507;48.454;-2.058;2023-06-22T13:32:49;25.30;57.00
76613;DHT22;65507;48.454;-2.058;2023-06-22T13:35:14;25.20;57.40
76613;DHT22;65507;48.454;-2.058;2023-06-22T13:37:40;25.10;57.40
76613;DHT22;65507;48.454;-2.058;2023-06-22T13:40:06;25.00;57.70
76613;DHT22;65507;48.454;-2.058;2023-06-22T13:42:32;25.00;57.90
76613;DHT22;65507;48.454;-2.058;2023-06-22T13:44:58;25.00;57.90
76613;DHT22;65507;48.454;-2.058;2023-06-22T13:47:23;24.90;57.90
76613;DHT22;65507;48.454;-2.058;2023-06-22T13:49:49;24.90;58.00
76613;DHT22;65507;48.454;-2.058;2023-06-22T13:52:14;24.90;57.90
76613;DHT22;65507;48.454;-2.058;2023-06-22T13:54:40;24.90;57.80
76613;DHT22;65507;48.454;-2.058;2023-06-22T13:57:06;24.80;57.70
76613;DHT22;65507;48.454;-2.058;2023-06-22T13:59:31;24.80;57.70
76613;DHT22;65507;48.454;-2.058;2023-06-22T14:01:57;24.90;57.40
76613;DHT22;65507;48.454;-2.058;2023-06-22T14:04:23;25.00;57.30
76613;DHT22;65507;48.454;-2.058;2023-06-22T14:06:48;25.00;57.20
76613;DHT22;65507;48.454;-2.058;2023-06-22T14:09:14;25.00;57.10
76613;DHT22;65507;48.454;-2.058;2023-06-22T14:11:39;25.00;56.90
76613;DHT22;65507;48.454;-2.058;2023-06-22T14:14:05;24.90;56.90
76613;DHT22;65507;48.454;-2.058;2023-06-22T14:16:30;24.90;57.00
76613;DHT22;65507;48.454;-2.058;2023-06-22T14:18:56;24.90;57.10
76613;DHT22;65507;48.454;-2.058;2023-06-22T14:21:21;24.90;56.90
76613;DHT22;65507;48.454;-2.058;2023-06-22T14:23:47;24.80;56.80
76613;DHT22;65507;48.454;-2.058;2023-06-22T14:26:15;24.80;57.10
76613;DHT22;65507;48.454;-2.058;2023-06-22T14:28:43;24.80;56.90
76613;DHT22;65507;48.454;-2.058;2023-06-22T14:31:19;24.80;56.80
76613;DHT22;65507;48.454;-2.058;2023-06-22T14:33:48;24.70;56.50
76613;DHT22;65507;48.454;-2.058;2023-06-22T14:36:14;24.60;56.80
76613;DHT22;65507;48.454;-2.058;2023-06-22T14:38:39;24.50;56.90
76613;DHT22;65507;48.454;-2.058;2023-06-22T14:41:05;24.60;56.90
76613;DHT22;65507;48.454;-2.058;2023-06-22T14:43:30;24.70;56.70
76613;DHT22;65507;48.454;-2.058;2023-06-22T14:45:56;24.70;56.70
76613;DHT22;65507;48.454;-2.058;2023-06-22T14:48:21;24.70;56.50
76613;DHT22;65507;48.454;-2.058;2023-06-22T14:50:47;24.70;56.80
76613;DHT22;65507;48.454;-2.058;2023-06-22T14:53:13;24.60;56.70
76613;DHT22;65507;48.454;-2.058;2023-06-22T14:55:39;23.40;56.00
76613;DHT22;65507;48.454;-2.058;2023-06-22T14:58:05;24.40;56.80
76613;DHT22;65507;48.454;-2.058;2023-06-22T15:00:30;24.30;57.00
76613;DHT22;65507;48.454;-2.058;2023-06-22T15:02:56;24.30;57.20
76613;DHT22;65507;48.454;-2.058;2023-06-22T15:05:22;24.20;57.10
76613;DHT22;65507;48.454;-2.058;2023-06-22T15:07:49;24.20;57.30
76613;DHT22;65507;48.454;-2.058;2023-06-22T15:10:15;24.20;57.30
76613;DHT22;65507;48.454;-2.058;2023-06-22T15:12:40;24.20;57.20
76613;DHT22;65507;48.454;-2.058;2023-06-22T15:15:06;24.20;57.20